Time;durP1;ratioP1;P1;durP2;ratioP2;P2;SDS_P1;SDS_P2;PMS_P1;PMS_P2;Temp;Humidity;BMP_temperature;BMP_pressure;BME280_temperature;BME280_humidity;BME280_pressure;Samples;Min_cycle;Max_cycle;Signal;HPM_P1;HPM_P2
2022/09/27 00:01:15;;;;;;;;;;;;;;;;;;5070347;28;20347;-76
2022/09/27 00:03:43;;;;;;;;;;;;;;;;;;5071018;28;20457;-76
2022/09/27 00:06:12;;;;;;;;;;;;;;;;;;5070945;28;19964;-75
2022/09/27 00:08:39;;;;;;;;;;;;;;;;;;5070204;28;19979;-77
2022/09/27 00:11:07;;;;;;;;;;;;;;;;;;5069823;28;20335;-76
2022/09/27 00:13:34;;;;;;;;;;;;;;;;;;5070061;28;19955;-76
2022/09/27 00:16:04;;;;;;;;;;;;;;;;;;5072651;28;19983;-76
2022/09/27 00:18:31;;;;;;;;;;;;;;;;;;5074069;28;20413;-76
2022/09/27 00:21:05;;;;;;;;;;;;;;;;;;5073524;28;20430;-77
2022/09/27 00:23:32;;;;;;;;;;;;;;;;;;5074169;28;20387;-77
2022/09/27 00:25:59;;;;;;;;;;;;;;;;;;5074493;28;19987;-76
2022/09/27 00:28:26;;;;;;;;;;;;;;;;;;5073771;28;20605;-77
2022/09/27 00:30:53;;;;;;;;;;;;;;;;;;5076449;28;20267;-76
2022/09/27 00:33:19;;;;;;;;;;;;;;;;;;5075019;28;20019;-76
2022/09/27 00:35:46;;;;;;;;;;;;;;;;;;5074334;28;19924;-76
2022/09/27 00:38:14;;;;;;;;;;;;;;;;;;5073552;28;20085;-76
2022/09/27 00:40:41;;;;;;;;;;;;;;;;;;5073099;28;19997;-75
2022/09/27 00:43:13;;;;;;;;;;;;;;;;;;5073873;28;20015;-74
2022/09/27 00:45:40;;;;;;;;;;;;;;;;;;5073517;28;19970;-75
2022/09/27 00:48:06;;;;;;;;;;;;;;;;;;5073727;28;19971;-75
2022/09/27 00:50:36;;;;;;;;;;;;;;;;;;5073090;28;20020;-74
2022/09/27 00:53:08;;;;;;;;;;;;;;;;;;5073680;28;19964;-75
2022/09/27 00:55:37;;;;;;;;;;;;;;;;;;5073757;28;19967;-75
2022/09/27 00:58:04;;;;;;;;;;;;;;;;;;5073269;28;19944;-74
2022/09/27 01:00:31;;;;;;;;;;;;;;;;;;5073254;28;20395;-74
2022/09/27 01:02:58;;;;;;;;;;;;;;;;;;5073831;28;20014;-75
2022/09/27 01:05:25;;;;;;;;;;;;;;;;;;5075198;28;19925;-74
2022/09/27 01:07:55;;;;;;;;;;;;;;;;;;5074588;28;19930;-75
2022/09/27 01:10:24;;;;;;;;;;;;;;;;;;5074568;28;19978;-75
2022/09/27 01:12:57;;;;;;;;;;;;;;;;;;5074337;28;19931;-75
2022/09/27 01:15:27;;;;;;;;;;;;;;;;;;5074724;28;19925;-75
2022/09/27 01:18:00;;;;;;;;;;;;;;;;;;5088512;28;19924;-75
2022/09/27 01:20:44;;;;;;;;;;;;;;;;;;5092606;28;19925;-75
2022/09/27 01:23:19;;;;;;;;;;;;;;;;;;5093968;28;19924;-75
2022/09/27 01:25:55;;;;;;;;;;;;;;;;;;5094884;28;19924;-74
2022/09/27 01:28:29;;;;;;;;;;;;;;;;;;5097247;28;19924;-74
2022/09/27 01:31:01;;;;;;;;;;;;;;;;;;5089235;28;20379;-76
2022/09/27 01:33:42;;;;;;;;;;;;;;;;;;5083390;28;19928;-73
2022/09/27 01:36:15;;;;;;;;;;;;;;;;;;5086252;28;19936;-73
2022/09/27 01:38:45;;;;;;;;;;;;;;;;;;5084510;28;19928;-73
2022/09/27 01:41:15;;;;;;;;;;;;;;;;;;5085333;28;20328;-75
2022/09/27 01:43:45;;;;;;;;;;;;;;;;;;5084933;28;20412;-74
2022/09/27 01:46:15;;;;;;;;;;;;;;;;;;5083835;28;19928;-74
2022/09/27 01:48:44;;;;;;;;;;;;;;;;;;5083775;28;19931;-74
2022/09/27 01:51:12;;;;;;;;;;;;;;;;;;5086611;28;19925;-74
2022/09/27 01:53:40;;;;;;;;;;;;;;;;;;5082020;28;19974;-75
2022/09/27 01:56:09;;;;;;;;;;;;;;;;;;5087794;28;19924;-75
2022/09/27 01:58:38;;;;;;;;;;;;;;;;;;5096784;28;19962;-76
2022/09/27 02:01:05;;;;;;;;;;;;;;;;;;5096816;28;19912;-75
2022/09/27 02:03:35;;;;;;;;;;;;;;;;;;5077306;28;19913;-75
2022/09/27 02:06:03;;;;;;;;;;;;;;;;;;5073338;28;19925;-75
2022/09/27 02:08:33;;;;;;;;;;;;;;;;;;5072309;28;19925;-75
2022/09/27 02:11:02;;;;;;;;;;;;;;;;;;5069014;28;19929;-75
2022/09/27 02:13:33;;;;;;;;;;;;;;;;;;5073087;28;20002;-76
2022/09/27 02:16:05;;;;;;;;;;;;;;;;;;5075075;28;19929;-75
2022/09/27 02:18:35;;;;;;;;;;;;;;;;;;5075595;28;19913;-76
2022/09/27 02:21:04;;;;;;;;;;;;;;;;;;5072998;28;19928;-75
2022/09/27 02:23:36;;;;;;;;;;;;;;;;;;5064074;28;19973;-75
2022/09/27 02:26:04;;;;;;;;;;;;;;;;;;5054409;28;19971;-76
2022/09/27 02:28:34;;;;;;;;;;;;;;;;;;5054141;28;19925;-75
2022/09/27 02:31:01;;;;;;;;;;;;;;;;;;5060228;28;19975;-74
2022/09/27 02:33:30;;;;;;;;;;;;;;;;;;5053429;28;19964;-75
2022/09/27 02:35:58;;;;;;;;;;;;;;;;;;5054539;28;19925;-75
2022/09/27 02:38:25;;;;;;;;;;;;;;;;;;5053896;28;19974;-75
2022/09/27 02:40:52;;;;;;;;;;;;;;;;;;5054175;28;19925;-75
2022/09/27 02:43:20;;;;;;;;;;;;;;;;;;5056881;28;19972;-76
2022/09/27 02:45:53;;;;;;;;;;;;;;;;;;5056567;28;19948;-75
2022/09/27 02:48:26;;;;;;;;;;;;;;;;;;5053628;28;19995;-75
2022/09/27 02:51:05;;;;;;;;;;;;;;;;;;5052837;28;19976;-76
2022/09/27 02:53:37;;;;;;;;;;;;;;;;;;5053303;28;19925;-75
2022/09/27 02:56:09;;;;;;;;;;;;;;;;;;5055164;28;19968;-75
2022/09/27 02:58:42;;;;;;;;;;;;;;;;;;5071867;28;19956;-77
2022/09/27 03:01:11;;;;;;;;;;;;;;;;;;5070119;28;19936;-74
2022/09/27 03:03:42;;;;;;;;;;;;;;;;;;5053530;28;19925;-74
2022/09/27 03:06:11;;;;;;;;;;;;;;;;;;5051999;28;19960;-74
2022/09/27 03:08:38;;;;;;;;;;;;;;;;;;5051866;28;19960;-74
2022/09/27 03:11:05;;;;;;;;;;;;;;;;;;5051476;28;20037;-74
2022/09/27 03:13:32;;;;;;;;;;;;;;;;;;5051606;28;20423;-75
2022/09/27 03:15:59;;;;;;;;;;;;;;;;;;5051655;28;20314;-75
2022/09/27 03:18:25;;;;;;;;;;;;;;;;;;5051224;28;19925;-75
2022/09/27 03:20:52;;;;;;;;;;;;;;;;;;5050979;28;19928;-74
2022/09/27 03:23:20;;;;;;;;;;;;;;;;;;5050993;28;19972;-75
2022/09/27 03:25:46;;;;;;;;;;;;;;;;;;5050785;28;19928;-75
2022/09/27 03:28:13;;;;;;;;;;;;;;;;;;5050896;28;19976;-75
2022/09/27 03:30:40;;;;;;;;;;;;;;;;;;5050521;28;20002;-75
2022/09/27 03:33:08;;;;;;;;;;;;;;;;;;5050381;28;20292;-75
2022/09/27 03:35:34;;;;;;;;;;;;;;;;;;5050859;28;20527;-75
2022/09/27 03:38:01;;;;;;;;;;;;;;;;;;5050525;28;19964;-75
2022/09/27 03:40:29;;;;;;;;;;;;;;;;;;5050382;28;19972;-75
2022/09/27 03:42:55;;;;;;;;;;;;;;;;;;5050262;28;20295;-75
2022/09/27 03:45:22;;;;;;;;;;;;;;;;;;5050621;28;19968;-74
2022/09/27 03:47:49;;;;;;;;;;;;;;;;;;5049896;28;19960;-74
2022/09/27 03:50:15;;;;;;;;;;;;;;;;;;5050770;28;20058;-75
2022/09/27 03:52:42;;;;;;;;;;;;;;;;;;5054275;28;19964;-75
2022/09/27 03:55:09;;;;;;;;;;;;;;;;;;5054270;28;19931;-74
2022/09/27 03:57:37;;;;;;;;;;;;;;;;;;5054003;28;20344;-75
2022/09/27 04:00:04;;;;;;;;;;;;;;;;;;5053585;28;19925;-74
2022/09/27 04:02:31;;;;;;;;;;;;;;;;;;5064424;28;19933;-74
2022/09/27 04:04:57;;;;;;;;;;;;;;;;;;5073759;28;19924;-75
2022/09/27 04:07:24;;;;;;;;;;;;;;;;;;5073991;28;19928;-74
2022/09/27 04:09:50;;;;;;;;;;;;;;;;;;5073586;28;19978;-74
2022/09/27 04:12:17;;;;;;;;;;;;;;;;;;5073435;28;19929;-73
2022/09/27 04:14:45;;;;;;;;;;;;;;;;;;5100818;22;19928;-76
2022/09/27 04:17:11;;;;;;;;;;;;;;;;;;5114889;28;19967;-77
2022/09/27 04:19:38;;;;;;;;;;;;;;;;;;5115270;28;19924;-75
2022/09/27 04:22:05;;;;;;;;;;;;;;;;;;5115189;28;19984;-75
2022/09/27 04:24:32;;;;;;;;;;;;;;;;;;5115589;28;19977;-75
2022/09/27 04:26:59;;;;;;;;;;;;;;;;;;5116044;28;19931;-76
2022/09/27 04:29:25;;;;;;;;;;;;;;;;;;5114716;28;19975;-77
2022/09/27 04:31:54;;;;;;;;;;;;;;;;;;5115338;28;19973;-76
2022/09/27 04:36:25;;;;;;;;;;;;;;;;;;5115476;28;19923;-76
2022/09/27 04:37:10;;;;;;;;;;;;;;;;;;5113798;28;20293;-76
2022/09/27 04:39:38;;;;;;;;;;;;;;;;;;5114236;28;20570;-75
2022/09/27 04:42:05;;;;;;;;;;;;;;;;;;5117738;28;20041;-75
2022/09/27 04:44:31;;;;;;;;;;;;;;;;;;5122231;28;20343;-75
2022/09/27 04:46:59;;;;;;;;;;;;;;;;;;5119781;28;20370;-75
2022/09/27 04:49:25;;;;;;;;;;;;;;;;;;5113575;28;20427;-76
2022/09/27 04:51:52;;;;;;;;;;;;;;;;;;5113723;28;19955;-76
2022/09/27 04:54:19;;;;;;;;;;;;;;;;;;5113576;28;19985;-76
2022/09/27 04:56:47;;;;;;;;;;;;;;;;;;5114030;28;19924;-76
2022/09/27 04:59:14;;;;;;;;;;;;;;;;;;5113994;28;19924;-75
2022/09/27 05:01:40;;;;;;;;;;;;;;;;;;5113282;28;19973;-75
2022/09/27 05:04:08;;;;;;;;;;;;;;;;;;5113731;28;20348;-76
2022/09/27 05:06:35;;;;;;;;;;;;;;;;;;5112848;28;19973;-76
2022/09/27 05:09:01;;;;;;;;;;;;;;;;;;5113868;28;19924;-78
2022/09/27 05:11:28;;;;;;;;;;;;;;;;;;5115156;28;19923;-78
2022/09/27 05:13:54;;;;;;;;;;;;;;;;;;5114587;28;20410;-78
2022/09/27 05:16:21;;;;;;;;;;;;;;;;;;5115290;28;19975;-78
2022/09/27 05:18:47;;;;;;;;;;;;;;;;;;5113699;28;19967;-76
2022/09/27 05:21:15;;;;;;;;;;;;;;;;;;5113077;28;19975;-77
2022/09/27 05:23:42;;;;;;;;;;;;;;;;;;5112850;28;20015;-77
2022/09/27 05:26:08;;;;;;;;;;;;;;;;;;5113244;28;19923;-77
2022/09/27 05:28:35;;;;;;;;;;;;;;;;;;5112851;28;19951;-78
2022/09/27 05:31:01;;;;;;;;;;;;;;;;;;5112940;28;20370;-78
2022/09/27 05:33:27;;;;;;;;;;;;;;;;;;5112942;28;19924;-78
2022/09/27 05:35:54;;;;;;;;;;;;;;;;;;5112627;28;19963;-78
2022/09/27 05:38:22;;;;;;;;;;;;;;;;;;5112854;28;20349;-78
2022/09/27 05:40:50;;;;;;;;;;;;;;;;;;5112832;28;19931;-77
2022/09/27 05:43:16;;;;;;;;;;;;;;;;;;5112827;28;19924;-78
2022/09/27 05:45:43;;;;;;;;;;;;;;;;;;5113106;28;19967;-78
2022/09/27 05:48:11;;;;;;;;;;;;;;;;;;5112905;28;19930;-78
2022/09/27 05:50:38;;;;;;;;;;;;;;;;;;5112366;28;20390;-77
2022/09/27 05:53:04;;;;;;;;;;;;;;;;;;5113078;28;19931;-78
2022/09/27 05:55:32;;;;;;;;;;;;;;;;;;5105966;28;20364;-78
2022/09/27 05:58:00;;;;;;;;;;;;;;;;;;5112767;28;19970;-78
2022/09/27 06:00:27;;;;;;;;;;;;;;;;;;5112381;28;19967;-78
2022/09/27 06:02:54;;;;;;;;;;;;;;;;;;5099224;28;19966;-78
2022/09/27 06:05:21;;;;;;;;;;;;;;;;;;5092200;28;19924;-78
2022/09/27 06:07:49;;;;;;;;;;;;;;;;;;5092342;28;19967;-78
2022/09/27 06:10:15;;;;;;;;;;;;;;;;;;5092887;28;19924;-77
2022/09/27 06:12:43;;;;;;;;;;;;;;;;;;5092198;28;19964;-78
2022/09/27 06:15:10;;;;;;;;;;;;;;;;;;5092721;28;19924;-77
2022/09/27 06:17:37;;;;;;;;;;;;;;;;;;5092891;28;19924;-78
2022/09/27 06:20:04;;;;;;;;;;;;;;;;;;5092123;28;20015;-77
2022/09/27 06:22:30;;;;;;;;;;;;;;;;;;5091786;28;19924;-77
2022/09/27 06:24:57;;;;;;;;;;;;;;;;;;5092199;28;20002;-77
2022/09/27 06:27:25;;;;;;;;;;;;;;;;;;5092349;28;20490;-78
2022/09/27 06:29:52;;;;;;;;;;;;;;;;;;5091902;28;19930;-77
2022/09/27 06:32:19;;;;;;;;;;;;;;;;;;5092039;28;20025;-77
2022/09/27 06:34:45;;;;;;;;;;;;;;;;;;5091178;28;20314;-76
2022/09/27 06:37:12;;;;;;;;;;;;;;;;;;5091913;28;19931;-77
2022/09/27 06:39:38;;;;;;;;;;;;;;;;;;5091276;28;19946;-77
2022/09/27 06:42:05;;;;;;;;;;;;;;;;;;5091399;28;20398;-77
2022/09/27 06:44:32;;;;;;;;;;;;;;;;;;5091288;28;19930;-77
2022/09/27 06:46:59;;;;;;;;;;;;;;;;;;5091629;28;19975;-77
2022/09/27 06:49:26;;;;;;;;;;;;;;;;;;5093220;28;19977;-77
2022/09/27 06:51:53;;;;;;;;;;;;;;;;;;5112270;28;19923;-76
2022/09/27 06:54:19;;;;;;;;;;;;;;;;;;5123717;28;19912;-76
2022/09/27 06:56:47;;;;;;;;;;;;;;;;;;5139493;27;19948;-76
2022/09/27 07:02:13;;;;;;;;;;;;;;;;;;5048565;28;20439;-76
2022/09/27 07:04:40;;;;;;;;;;;;;;;;;;5047871;28;20307;-77
2022/09/27 07:07:06;;;;;;;;;;;;;;;;;;5076110;28;20389;-76
2022/09/27 07:09:33;;;;;;;;;;;;;;;;;;5111138;28;20445;-77
2022/09/27 07:11:59;;;;;;;;;;;;;;;;;;5110895;28;20346;-77
2022/09/27 07:14:26;;;;;;;;;;;;;;;;;;5110600;28;20015;-77
2022/09/27 07:16:53;;;;;;;;;;;;;;;;;;5117433;28;19931;-76
2022/09/27 07:19:21;;;;;;;;;;;;;;;;;;5120787;28;19947;-77
2022/09/27 07:21:47;;;;;;;;;;;;;;;;;;5121788;28;19924;-76
2022/09/27 07:24:13;;;;;;;;;;;;;;;;;;5123195;28;19923;-76
2022/09/27 07:26:40;;;;;;;;;;;;;;;;;;5119924;28;19931;-75
2022/09/27 07:29:06;;;;;;;;;;;;;;;;;;5110934;28;19974;-76
2022/09/27 07:31:33;;;;;;;;;;;;;;;;;;5110767;28;19967;-76
2022/09/27 07:33:59;;;;;;;;;;;;;;;;;;5110593;28;19967;-77
2022/09/27 07:36:29;;;;;;;;;;;;;;;;;;5110843;28;19924;-77
2022/09/27 07:38:58;;;;;;;;;;;;;;;;;;5090028;28;20336;-77
2022/09/27 07:41:25;;;;;;;;;;;;;;;;;;5090291;28;20465;-77
2022/09/27 07:43:52;;;;;;;;;;;;;;;;;;5090494;28;20014;-78
2022/09/27 07:46:19;;;;;;;;;;;;;;;;;;5090417;28;19928;-77
2022/09/27 07:48:45;;;;;;;;;;;;;;;;;;5090324;28;19993;-77
2022/09/27 07:51:12;;;;;;;;;;;;;;;;;;5090177;28;20384;-77
2022/09/27 07:53:40;;;;;;;;;;;;;;;;;;5090161;28;20040;-76
2022/09/27 07:56:07;;;;;;;;;;;;;;;;;;5090366;28;20019;-77
2022/09/27 07:58:33;;;;;;;;;;;;;;;;;;5090320;28;20011;-77
2022/09/27 08:01:01;;;;;;;;;;;;;;;;;;5090407;28;19953;-77
2022/09/27 08:03:27;;;;;;;;;;;;;;;;;;5108123;28;19930;-77
2022/09/27 08:05:54;;;;;;;;;;;;;;;;;;5110508;28;19967;-77
2022/09/27 08:08:20;;;;;;;;;;;;;;;;;;5110317;28;19975;-77
2022/09/27 08:10:48;;;;;;;;;;;;;;;;;;5110406;28;19978;-77
2022/09/27 08:13:18;;;;;;;;;;;;;;;;;;5110742;28;19971;-77
2022/09/27 08:15:45;;;;;;;;;;;;;;;;;;5110425;28;19931;-76
2022/09/27 08:18:12;;;;;;;;;;;;;;;;;;5110463;28;20460;-76
2022/09/27 08:20:38;;;;;;;;;;;;;;;;;;5110378;28;20011;-77
2022/09/27 08:23:05;;;;;;;;;;;;;;;;;;5110687;28;20313;-77
2022/09/27 08:25:31;;;;;;;;;;;;;;;;;;5110310;28;20315;-77
2022/09/27 08:28:00;;;;;;;;;;;;;;;;;;5110713;28;19978;-77
2022/09/27 08:30:27;;;;;;;;;;;;;;;;;;5110275;28;20006;-76
2022/09/27 08:32:57;;;;;;;;;;;;;;;;;;5110504;28;20015;-76
2022/09/27 08:35:23;;;;;;;;;;;;;;;;;;5110234;28;20315;-76
2022/09/27 08:37:53;;;;;;;;;;;;;;;;;;5113823;28;19924;-77
2022/09/27 08:40:22;;;;;;;;;;;;;;;;;;5113809;28;20006;-77
2022/09/27 08:42:57;;;;;;;;;;;;;;;;;;5114237;28;20018;-77
2022/09/27 08:45:29;;;;;;;;;;;;;;;;;;5114510;28;19959;-76
2022/09/27 08:47:58;;;;;;;;;;;;;;;;;;5113854;28;19928;-77
2022/09/27 08:50:26;;;;;;;;;;;;;;;;;;5115109;28;19924;-78
2022/09/27 08:52:56;;;;;;;;;;;;;;;;;;5115381;28;20565;-76
2022/09/27 08:55:25;;;;;;;;;;;;;;;;;;5114336;28;19924;-76
2022/09/27 08:57:53;;;;;;;;;;;;;;;;;;5113985;28;19967;-77
2022/09/27 09:00:20;;;;;;;;;;;;;;;;;;5113282;28;20449;-76
2022/09/27 09:02:48;;;;;;;;;;;;;;;;;;5113405;28;20445;-76
2022/09/27 09:05:17;;;;;;;;;;;;;;;;;;5113572;28;20368;-76
2022/09/27 09:07:51;;;;;;;;;;;;;;;;;;5113926;28;19924;-76
2022/09/27 09:13:09;;;;;;;;;;;;;;;;;;5113147;28;20574;-76
2022/09/27 09:18:44;;;;;;;;;;;;;;;;;;5149599;27;19994;-50
2022/09/27 09:21:17;;;;;;;;;;;;;;;;;;5149608;27;19923;-52
2022/09/27 09:23:54;;;;;;;;;;;;;;;;;;5149523;27;19927;-53
2022/09/27 09:26:24;;;;;;;;;;;;;;;;;;5149344;27;19927;-51
2022/09/27 09:28:55;;;;;;;;;;;;;;;;;;5149599;27;19923;-52
2022/09/27 09:31:28;;;;;;;;;;;;;;;;;;5149048;27;19927;-52
2022/09/27 09:33:58;;;;;;;;;;;;;;;;;;5149551;27;19927;-51
2022/09/27 09:36:28;;;;;;;;;;;;;;;;;;5149331;27;20386;-50
2022/09/27 09:38:56;;;;;;;;;;;;;;;;;;5151619;27;20391;-54
2022/09/27 09:41:26;;;;;;;;;;;;;;;;;;5151113;27;19923;-53
2022/09/27 09:43:55;;;;;;;;;;;;;;;;;;5150182;27;19972;-49
2022/09/27 09:46:23;;;;;;;;;;;;;;;;;;5148782;27;19969;-52
2022/09/27 09:48:52;;;;;;;;;;;;;;;;;;5149112;27;19930;-54
2022/09/27 09:51:23;;;;;;;;;;;;;;;;;;5148682;27;20391;-49
2022/09/27 09:53:53;;;;;;;;;;;;;;;;;;5148780;27;19997;-48
2022/09/27 09:56:22;;;;;;;;;;;;;;;;;;5148645;27;19927;-48
2022/09/27 09:58:51;;;;;;;;;;;;;;;;;;5148455;27;19946;-51
2022/09/27 10:01:19;;;;;;;;;;;;;;;;;;5148516;27;19931;-50
2022/09/27 10:03:46;;;;;;;;;;;;;;;;;;5128646;27;19928;-52
2022/09/27 10:06:14;;;;;;;;;;;;;;;;;;5128074;28;19931;-52
2022/09/27 10:08:42;;;;;;;;;;;;;;;;;;5127771;28;19930;-53
2022/09/27 10:11:14;;;;;;;;;;;;;;;;;;5127755;28;19977;-54
2022/09/27 10:13:41;;;;;;;;;;;;;;;;;;5145267;27;19923;-67
2022/09/27 10:16:09;;;;;;;;;;;;;;;;;;5148139;27;19927;-59
2022/09/27 10:18:36;;;;;;;;;;;;;;;;;;5147970;27;19931;-53
2022/09/27 10:21:06;;;;;;;;;;;;;;;;;;5148061;27;19923;-49
2022/09/27 10:23:33;;;;;;;;;;;;;;;;;;5148134;27;19927;-49
2022/09/27 10:26:02;;;;;;;;;;;;;;;;;;5148022;27;19923;-50
2022/09/27 10:28:31;;;;;;;;;;;;;;;;;;5142005;27;19923;-50
2022/09/27 10:30:59;;;;;;;;;;;;;;;;;;5106465;22;19924;-55
2022/09/27 10:33:27;;;;;;;;;;;;;;;;;;5052919;28;19932;-55
2022/09/27 10:35:53;;;;;;;;;;;;;;;;;;5032284;28;20196;-52
2022/09/27 10:38:24;;;;;;;;;;;;;;;;;;5033110;28;19929;-55
2022/09/27 10:40:52;;;;;;;;;;;;;;;;;;5032906;28;19929;-56
2022/09/27 10:43:26;;;;;;;;;;;;;;;;;;5033026;28;20011;-57
2022/09/27 10:45:59;;;;;;;;;;;;;;;;;;5033139;28;19972;-56
2022/09/27 10:48:26;;;;;;;;;;;;;;;;;;5032586;28;19925;-55
2022/09/27 10:50:58;;;;;;;;;;;;;;;;;;5032489;28;19933;-56
2022/09/27 10:53:25;;;;;;;;;;;;;;;;;;5032433;28;19926;-55
2022/09/27 10:55:52;;;;;;;;;;;;;;;;;;5032560;28;20321;-55
2022/09/27 10:58:20;;;;;;;;;;;;;;;;;;5032450;28;20412;-55
2022/09/27 11:00:55;;;;;;;;;;;;;;;;;;5032278;28;19929;-54
2022/09/27 11:03:24;;;;;;;;;;;;;;;;;;5032165;28;19933;-55
2022/09/27 11:05:53;;;;;;;;;;;;;;;;;;5032466;28;19968;-56
2022/09/27 11:08:25;;;;;;;;;;;;;;;;;;5032816;28;20620;-56
2022/09/27 11:11:03;;;;;;;;;;;;;;;;;;5032500;28;19975;-55
2022/09/27 11:13:31;;;;;;;;;;;;;;;;;;5032158;28;19979;-55
2022/09/27 11:16:12;;;;;;;;;;;;;;;;;;5032613;28;20365;-54
2022/09/27 11:18:43;;;;;;;;;;;;;;;;;;5032358;28;19925;-56
2022/09/27 11:21:14;;;;;;;;;;;;;;;;;;5032116;28;19951;-55
2022/09/27 11:23:52;;;;;;;;;;;;;;;;;;5032445;28;19932;-54
2022/09/27 11:26:25;;;;;;;;;;;;;;;;;;5032438;28;20263;-55
2022/09/27 11:28:58;;;;;;;;;;;;;;;;;;5031733;28;19932;-52
2022/09/27 11:31:30;;;;;;;;;;;;;;;;;;5031892;28;19940;-52
2022/09/27 11:34:02;;;;;;;;;;;;;;;;;;5032166;28;20348;-56
2022/09/27 11:36:35;;;;;;;;;;;;;;;;;;5032262;28;19925;-56
2022/09/27 11:39:04;;;;;;;;;;;;;;;;;;5032236;28;20202;-55
2022/09/27 11:41:39;;;;;;;;;;;;;;;;;;5030292;28;19925;-55
2022/09/27 11:44:12;;;;;;;;;;;;;;;;;;5032045;28;19925;-56
2022/09/27 11:46:41;;;;;;;;;;;;;;;;;;5031601;28;19925;-56
2022/09/27 11:49:17;;;;;;;;;;;;;;;;;;5031098;28;19929;-57
2022/09/27 11:51:53;;;;;;;;;;;;;;;;;;5031851;28;19925;-54
2022/09/27 11:54:26;;;;;;;;;;;;;;;;;;5031437;28;19975;-56
2022/09/27 11:56:58;;;;;;;;;;;;;;;;;;5031290;28;20450;-55
2022/09/27 11:59:33;;;;;;;;;;;;;;;;;;5031220;28;19925;-55
2022/09/27 12:02:07;;;;;;;;;;;;;;;;;;5025671;28;19995;-56
2022/09/27 12:04:44;;;;;;;;;;;;;;;;;;5012165;28;19991;-55
2022/09/27 12:07:16;;;;;;;;;;;;;;;;;;5011661;28;19975;-56
2022/09/27 12:09:44;;;;;;;;;;;;;;;;;;5011378;28;19939;-55
2022/09/27 12:12:13;;;;;;;;;;;;;;;;;;5011570;28;19952;-54
2022/09/27 12:14:42;;;;;;;;;;;;;;;;;;5011323;28;20298;-55
2022/09/27 12:17:15;;;;;;;;;;;;;;;;;;5011497;28;19933;-57
2022/09/27 12:19:44;;;;;;;;;;;;;;;;;;5011415;28;19925;-56
2022/09/27 12:22:12;;;;;;;;;;;;;;;;;;5011286;28;19926;-55
2022/09/27 12:24:39;;;;;;;;;;;;;;;;;;5011262;28;19976;-53
2022/09/27 12:27:09;;;;;;;;;;;;;;;;;;5011785;28;19985;-55
2022/09/27 12:29:37;;;;;;;;;;;;;;;;;;5011215;28;20341;-55
2022/09/27 12:32:06;;;;;;;;;;;;;;;;;;5011434;28;19932;-52
2022/09/27 12:34:37;;;;;;;;;;;;;;;;;;5011398;28;19929;-53
2022/09/27 12:37:05;;;;;;;;;;;;;;;;;;5011020;28;20329;-55
2022/09/27 12:39:38;;;;;;;;;;;;;;;;;;5011162;28;19925;-55
2022/09/27 12:42:08;;;;;;;;;;;;;;;;;;5010930;28;19925;-56
2022/09/27 12:44:38;;;;;;;;;;;;;;;;;;5011472;28;19933;-55
2022/09/27 12:47:10;;;;;;;;;;;;;;;;;;5011202;28;19932;-55
2022/09/27 12:49:42;;;;;;;;;;;;;;;;;;5011023;28;20386;-56
2022/09/27 12:52:10;;;;;;;;;;;;;;;;;;5010493;28;20723;-56
2022/09/27 12:54:48;;;;;;;;;;;;;;;;;;5011165;28;20007;-56
2022/09/27 12:57:21;;;;;;;;;;;;;;;;;;5011365;28;20354;-56
2022/09/27 12:59:58;;;;;;;;;;;;;;;;;;5011181;28;19925;-54
2022/09/27 13:02:55;;;;;;;;;;;;;;;;;;5019643;28;19979;-58
2022/09/27 13:05:42;;;;;;;;;;;;;;;;;;4930816;29;19931;-55
2022/09/27 13:08:26;;;;;;;;;;;;;;;;;;4995684;28;19979;-55
2022/09/27 13:10:57;;;;;;;;;;;;;;;;;;5030608;28;19948;-57
2022/09/27 13:13:25;;;;;;;;;;;;;;;;;;5030587;28;19925;-54
2022/09/27 13:15:55;;;;;;;;;;;;;;;;;;5030517;28;19925;-53
2022/09/27 13:18:33;;;;;;;;;;;;;;;;;;5030250;28;19929;-52
2022/09/27 13:21:01;;;;;;;;;;;;;;;;;;5030722;28;20293;-54
2022/09/27 13:24:00;;;;;;;;;;;;;;;;;;5030103;28;19925;-56
2022/09/27 13:26:44;;;;;;;;;;;;;;;;;;5030731;28;19925;-56
2022/09/27 13:29:21;;;;;;;;;;;;;;;;;;5030578;28;20341;-56
2022/09/27 13:32:21;;;;;;;;;;;;;;;;;;5029928;28;19925;-56
2022/09/27 13:34:49;;;;;;;;;;;;;;;;;;5030370;28;19925;-56
2022/09/27 13:37:35;;;;;;;;;;;;;;;;;;5030366;28;20332;-55
2022/09/27 13:40:22;;;;;;;;;;;;;;;;;;5030043;28;19933;-57
2022/09/27 13:42:55;;;;;;;;;;;;;;;;;;5030663;28;20002;-53
2022/09/27 13:45:27;;;;;;;;;;;;;;;;;;5030157;28;20356;-54
2022/09/27 13:47:55;;;;;;;;;;;;;;;;;;5029546;28;19933;-53
2022/09/27 13:50:24;;;;;;;;;;;;;;;;;;5029824;28;19929;-56
2022/09/27 13:52:57;;;;;;;;;;;;;;;;;;5029929;28;19929;-55
2022/09/27 13:55:44;;;;;;;;;;;;;;;;;;5029810;28;19929;-56
2022/09/27 13:58:27;;;;;;;;;;;;;;;;;;5029552;28;20448;-55
2022/09/27 14:00:55;;;;;;;;;;;;;;;;;;5030215;28;19999;-55
2022/09/27 14:03:26;;;;;;;;;;;;;;;;;;5013413;28;19956;-56
2022/09/27 14:05:55;;;;;;;;;;;;;;;;;;5014288;28;19933;-53
2022/09/27 14:08:25;;;;;;;;;;;;;;;;;;5013533;28;20028;-57
2022/09/27 14:10:52;;;;;;;;;;;;;;;;;;5013976;28;19929;-56
2022/09/27 14:13:20;;;;;;;;;;;;;;;;;;5014336;28;19926;-54
2022/09/27 14:15:49;;;;;;;;;;;;;;;;;;5014214;28;19926;-55
2022/09/27 14:18:15;;;;;;;;;;;;;;;;;;5013993;28;19932;-55
2022/09/27 14:20:43;;;;;;;;;;;;;;;;;;5013688;28;19925;-56
2022/09/27 14:23:15;;;;;;;;;;;;;;;;;;5013506;28;19925;-54
2022/09/27 14:25:44;;;;;;;;;;;;;;;;;;5013624;28;19980;-55
2022/09/27 14:28:19;;;;;;;;;;;;;;;;;;5013442;28;19925;-56
2022/09/27 14:30:46;;;;;;;;;;;;;;;;;;5012968;28;19937;-55
2022/09/27 14:33:28;;;;;;;;;;;;;;;;;;5013175;28;19933;-56
2022/09/27 14:38:40;;;;;;;;;;;;;;;;;;5013107;28;20301;-57
2022/09/27 14:41:08;;;;;;;;;;;;;;;;;;5013933;28;19929;-58
2022/09/27 14:43:35;;;;;;;;;;;;;;;;;;5013327;28;19965;-56
2022/09/27 14:46:05;;;;;;;;;;;;;;;;;;5013638;28;19933;-54
2022/09/27 14:48:34;;;;;;;;;;;;;;;;;;5012968;28;19926;-54
2022/09/27 14:51:02;;;;;;;;;;;;;;;;;;5012667;28;19978;-56
2022/09/27 14:53:29;;;;;;;;;;;;;;;;;;5013326;28;19925;-54
2022/09/27 14:55:56;;;;;;;;;;;;;;;;;;5012726;28;20501;-56
2022/09/27 14:58:24;;;;;;;;;;;;;;;;;;5020671;28;19931;-55
2022/09/27 15:00:50;;;;;;;;;;;;;;;;;;5032529;28;19929;-55
2022/09/27 15:03:20;;;;;;;;;;;;;;;;;;5032999;28;20379;-57
2022/09/27 15:05:49;;;;;;;;;;;;;;;;;;5032701;28;20356;-55
2022/09/27 15:08:17;;;;;;;;;;;;;;;;;;5032525;28;19932;-53
2022/09/27 15:10:44;;;;;;;;;;;;;;;;;;5033218;28;19925;-54
2022/09/27 15:13:13;;;;;;;;;;;;;;;;;;5032923;28;19932;-55
2022/09/27 15:15:40;;;;;;;;;;;;;;;;;;5032521;28;19932;-54
2022/09/27 15:18:30;;;;;;;;;;;;;;;;;;5032826;28;19948;-53
2022/09/27 15:20:59;;;;;;;;;;;;;;;;;;5032435;28;19925;-54
2022/09/27 15:23:27;;;;;;;;;;;;;;;;;;5032539;28;19932;-54
2022/09/27 15:25:58;;;;;;;;;;;;;;;;;;5032515;28;19925;-54
2022/09/27 15:28:25;;;;;;;;;;;;;;;;;;5032240;28;20124;-57
2022/09/27 15:30:55;;;;;;;;;;;;;;;;;;5031308;28;20404;-56
2022/09/27 15:33:22;;;;;;;;;;;;;;;;;;5032126;28;20479;-56
2022/09/27 15:35:50;;;;;;;;;;;;;;;;;;5032091;28;19925;-55
2022/09/27 15:38:25;;;;;;;;;;;;;;;;;;5032139;28;19940;-55
2022/09/27 15:41:02;;;;;;;;;;;;;;;;;;5032402;28;19968;-54
2022/09/27 15:43:30;;;;;;;;;;;;;;;;;;5032298;28;19932;-55
2022/09/27 15:45:59;;;;;;;;;;;;;;;;;;5032217;28;20414;-54
2022/09/27 15:48:26;;;;;;;;;;;;;;;;;;5031647;28;20329;-57
2022/09/27 15:50:52;;;;;;;;;;;;;;;;;;5032029;28;19926;-56
2022/09/27 15:53:34;;;;;;;;;;;;;;;;;;5031613;28;19996;-57
2022/09/27 15:56:02;;;;;;;;;;;;;;;;;;5029899;28;20283;-56
2022/09/27 15:58:30;;;;;;;;;;;;;;;;;;5032525;28;19991;-54
2022/09/27 16:00:58;;;;;;;;;;;;;;;;;;5031674;28;20370;-55
2022/09/27 16:03:25;;;;;;;;;;;;;;;;;;5015013;28;19929;-52
2022/09/27 16:05:52;;;;;;;;;;;;;;;;;;5011890;28;20475;-55
2022/09/27 16:08:18;;;;;;;;;;;;;;;;;;5011814;28;19940;-54
2022/09/27 16:10:46;;;;;;;;;;;;;;;;;;5012110;28;19929;-55
2022/09/27 16:13:13;;;;;;;;;;;;;;;;;;5012608;28;19930;-57
2022/09/27 16:15:40;;;;;;;;;;;;;;;;;;5011624;28;19933;-56
2022/09/27 16:18:07;;;;;;;;;;;;;;;;;;5011629;28;19926;-56
2022/09/27 16:20:34;;;;;;;;;;;;;;;;;;5012095;28;19926;-52
2022/09/27 16:23:01;;;;;;;;;;;;;;;;;;5012654;28;20386;-53
2022/09/27 16:25:28;;;;;;;;;;;;;;;;;;5012641;28;20247;-55
2022/09/27 16:27:57;;;;;;;;;;;;;;;;;;5012247;28;20205;-53
2022/09/27 16:30:25;;;;;;;;;;;;;;;;;;5012251;28;20025;-58
2022/09/27 16:32:52;;;;;;;;;;;;;;;;;;5014252;28;19925;-49
2022/09/27 16:35:19;;;;;;;;;;;;;;;;;;5012912;28;19956;-51
2022/09/27 16:37:46;;;;;;;;;;;;;;;;;;5014782;28;20333;-50
2022/09/27 16:40:14;;;;;;;;;;;;;;;;;;5013891;28;19932;-55
2022/09/27 16:42:42;;;;;;;;;;;;;;;;;;5013747;28;19925;-52
2022/09/27 16:47:37;;;;;;;;;;;;;;;;;;5026125;28;19925;-78
2022/09/27 16:52:48;;;;;;;;;;;;;;;;;;5035502;28;20414;-79
2022/09/27 16:55:17;;;;;;;;;;;;;;;;;;5033583;28;19932;-79
2022/09/27 16:57:45;;;;;;;;;;;;;;;;;;5015844;28;19926;-78
2022/09/27 17:00:12;;;;;;;;;;;;;;;;;;5016923;28;19933;-78
2022/09/27 17:02:45;;;;;;;;;;;;;;;;;;5018505;28;20024;-79
2022/09/27 17:05:14;;;;;;;;;;;;;;;;;;5018981;28;20304;-79
2022/09/27 17:07:40;;;;;;;;;;;;;;;;;;5019874;28;20001;-78
2022/09/27 17:10:07;;;;;;;;;;;;;;;;;;5019972;28;19968;-79
2022/09/27 17:12:34;;;;;;;;;;;;;;;;;;5020348;28;20008;-78
2022/09/27 17:15:04;;;;;;;;;;;;;;;;;;5018837;28;20388;-79
2022/09/27 17:17:31;;;;;;;;;;;;;;;;;;5014707;28;19976;-79